sensor_id;sensor_type;location;lat;lon;timestamp;P1;durP1;ratioP1;P2;durP2;ratioP2
78346;SDS011;67803;41.330;69.282;2023-12-07T00:01:46;61.50;;;26.75;;
78346;SDS011;67803;41.330;69.282;2023-12-07T00:04:17;67.45;;;28.52;;
78346;SDS011;67803;41.330;69.282;2023-12-07T00:06:48;69.50;;;28.60;;
78346;SDS011;67803;41.330;69.282;2023-12-07T00:09:19;63.60;;;28.30;;
78346;SDS011;67803;41.330;69.282;2023-12-07T00:11:50;63.35;;;28.85;;
78346;SDS011;67803;41.330;69.282;2023-12-07T00:14:21;66.43;;;28.58;;
78346;SDS011;67803;41.330;69.282;2023-12-07T00:16:52;69.00;;;28.67;;
78346;SDS011;67803;41.330;69.282;2023-12-07T00:19:23;69.28;;;30.40;;
78346;SDS011;67803;41.330;69.282;2023-12-07T00:21:54;71.15;;;31.73;;
78346;SDS011;67803;41.330;69.282;2023-12-07T00:24:25;72.20;;;29.00;;
78346;SDS011;67803;41.330;69.282;2023-12-07T00:26:56;76.78;;;29.75;;
78346;SDS011;67803;41.330;69.282;2023-12-07T00:29:27;70.60;;;29.63;;
78346;SDS011;67803;41.330;69.282;2023-12-07T00:31:58;80.07;;;30.65;;
78346;SDS011;67803;41.330;69.282;2023-12-07T00:34:30;63.65;;;27.30;;
78346;SDS011;67803;41.330;69.282;2023-12-07T00:37:01;75.82;;;28.15;;
78346;SDS011;67803;41.330;69.282;2023-12-07T00:39:33;70.32;;;26.85;;
78346;SDS011;67803;41.330;69.282;2023-12-07T00:42:04;60.92;;;26.98;;
78346;SDS011;67803;41.330;69.282;2023-12-07T00:44:38;64.78;;;30.52;;
78346;SDS011;67803;41.330;69.282;2023-12-07T00:47:09;62.72;;;27.60;;
78346;SDS011;67803;41.330;69.282;2023-12-07T00:49:41;61.45;;;25.40;;
78346;SDS011;67803;41.330;69.282;2023-12-07T00:52:12;61.60;;;27.80;;
78346;SDS011;67803;41.330;69.282;2023-12-07T00:54:43;62.05;;;26.73;;
78346;SDS011;67803;41.330;69.282;2023-12-07T00:57:14;62.58;;;28.00;;
78346;SDS011;67803;41.330;69.282;2023-12-07T00:59:45;67.20;;;27.50;;
78346;SDS011;67803;41.330;69.282;2023-12-07T01:02:16;64.90;;;26.42;;
78346;SDS011;67803;41.330;69.282;2023-12-07T01:04:47;64.47;;;26.35;;
78346;SDS011;67803;41.330;69.282;2023-12-07T01:07:18;58.72;;;25.48;;
78346;SDS011;67803;41.330;69.282;2023-12-07T01:09:49;62.78;;;26.13;;
78346;SDS011;67803;41.330;69.282;2023-12-07T01:12:20;55.67;;;24.90;;
78346;SDS011;67803;41.330;69.282;2023-12-07T01:14:51;58.90;;;26.42;;
78346;SDS011;67803;41.330;69.282;2023-12-07T01:17:22;57.88;;;25.55;;
78346;SDS011;67803;41.330;69.282;2023-12-07T01:19:53;64.43;;;26.90;;
78346;SDS011;67803;41.330;69.282;2023-12-07T01:22:24;68.15;;;26.83;;
78346;SDS011;67803;41.330;69.282;2023-12-07T01:24:55;65.57;;;28.00;;
78346;SDS011;67803;41.330;69.282;2023-12-07T01:27:26;63.00;;;25.80;;
78346;SDS011;67803;41.330;69.282;2023-12-07T01:29:57;67.93;;;27.30;;
78346;SDS011;67803;41.330;69.282;2023-12-07T01:32:29;60.58;;;25.95;;
78346;SDS011;67803;41.330;69.282;2023-12-07T01:35:00;58.10;;;24.58;;
78346;SDS011;67803;41.330;69.282;2023-12-07T01:37:31;61.15;;;25.48;;
78346;SDS011;67803;41.330;69.282;2023-12-07T01:40:02;58.88;;;25.63;;
78346;SDS011;67803;41.330;69.282;2023-12-07T01:42:36;62.42;;;25.17;;
78346;SDS011;67803;41.330;69.282;2023-12-07T01:45:08;70.50;;;25.67;;
78346;SDS011;67803;41.330;69.282;2023-12-07T01:47:39;60.45;;;26.63;;
78346;SDS011;67803;41.330;69.282;2023-12-07T01:50:10;51.15;;;19.63;;
78346;SDS011;67803;41.330;69.282;2023-12-07T01:52:43;36.45;;;16.67;;
78346;SDS011;67803;41.330;69.282;2023-12-07T01:55:15;42.42;;;15.40;;
78346;SDS011;67803;41.330;69.282;2023-12-07T01:57:46;23.80;;;10.95;;
78346;SDS011;67803;41.330;69.282;2023-12-07T02:00:17;27.50;;;12.82;;
78346;SDS011;67803;41.330;69.282;2023-12-07T02:02:48;27.95;;;12.10;;
78346;SDS011;67803;41.330;69.282;2023-12-07T02:05:19;27.75;;;11.48;;
78346;SDS011;67803;41.330;69.282;2023-12-07T02:07:50;27.75;;;12.00;;
78346;SDS011;67803;41.330;69.282;2023-12-07T02:10:22;29.85;;;11.82;;
78346;SDS011;67803;41.330;69.282;2023-12-07T02:12:53;32.15;;;13.95;;
78346;SDS011;67803;41.330;69.282;2023-12-07T02:15:25;33.10;;;12.05;;
78346;SDS011;67803;41.330;69.282;2023-12-07T02:23:19;28.38;;;12.43;;
78346;SDS011;67803;41.330;69.282;2023-12-07T02:25:52;28.45;;;11.88;;
78346;SDS011;67803;41.330;69.282;2023-12-07T02:28:24;29.25;;;13.25;;
78346;SDS011;67803;41.330;69.282;2023-12-07T02:30:54;30.98;;;12.90;;
78346;SDS011;67803;41.330;69.282;2023-12-07T02:33:26;29.08;;;12.60;;
78346;SDS011;67803;41.330;69.282;2023-12-07T02:35:57;26.80;;;12.90;;
78346;SDS011;67803;41.330;69.282;2023-12-07T02:38:28;25.52;;;12.10;;
78346;SDS011;67803;41.330;69.282;2023-12-07T02:40:59;29.75;;;12.52;;
78346;SDS011;67803;41.330;69.282;2023-12-07T02:43:31;30.75;;;12.13;;
78346;SDS011;67803;41.330;69.282;2023-12-07T02:46:03;28.05;;;12.18;;
78346;SDS011;67803;41.330;69.282;2023-12-07T02:48:34;27.48;;;11.65;;
78346;SDS011;67803;41.330;69.282;2023-12-07T02:51:05;28.55;;;12.32;;
78346;SDS011;67803;41.330;69.282;2023-12-07T02:53:37;31.48;;;13.18;;
78346;SDS011;67803;41.330;69.282;2023-12-07T02:56:08;30.75;;;13.75;;
78346;SDS011;67803;41.330;69.282;2023-12-07T02:58:39;32.97;;;12.65;;
78346;SDS011;67803;41.330;69.282;2023-12-07T03:01:10;22.95;;;10.98;;
78346;SDS011;67803;41.330;69.282;2023-12-07T03:03:41;27.15;;;11.60;;
78346;SDS011;67803;41.330;69.282;2023-12-07T03:06:12;25.80;;;12.18;;
78346;SDS011;67803;41.330;69.282;2023-12-07T03:08:43;27.20;;;11.77;;
78346;SDS011;67803;41.330;69.282;2023-12-07T03:11:14;24.50;;;11.05;;
78346;SDS011;67803;41.330;69.282;2023-12-07T03:13:45;27.35;;;11.95;;
78346;SDS011;67803;41.330;69.282;2023-12-07T03:16:17;32.67;;;12.77;;
78346;SDS011;67803;41.330;69.282;2023-12-07T03:18:47;28.25;;;12.00;;
78346;SDS011;67803;41.330;69.282;2023-12-07T03:21:19;26.38;;;13.20;;
78346;SDS011;67803;41.330;69.282;2023-12-07T03:23:49;26.63;;;13.20;;
78346;SDS011;67803;41.330;69.282;2023-12-07T03:26:20;26.20;;;12.82;;
78346;SDS011;67803;41.330;69.282;2023-12-07T03:28:52;28.42;;;13.18;;
78346;SDS011;67803;41.330;69.282;2023-12-07T03:31:23;35.25;;;13.43;;
78346;SDS011;67803;41.330;69.282;2023-12-07T03:33:54;34.33;;;13.57;;
78346;SDS011;67803;41.330;69.282;2023-12-07T03:36:25;34.00;;;13.02;;
78346;SDS011;67803;41.330;69.282;2023-12-07T03:38:56;34.40;;;14.27;;
78346;SDS011;67803;41.330;69.282;2023-12-07T03:41:27;31.75;;;13.50;;
78346;SDS011;67803;41.330;69.282;2023-12-07T03:43:58;32.35;;;13.85;;
78346;SDS011;67803;41.330;69.282;2023-12-07T03:46:29;29.20;;;12.73;;
78346;SDS011;67803;41.330;69.282;2023-12-07T03:49:00;31.35;;;13.07;;
78346;SDS011;67803;41.330;69.282;2023-12-07T03:51:31;33.67;;;13.57;;
78346;SDS011;67803;41.330;69.282;2023-12-07T03:54:03;37.50;;;13.45;;
78346;SDS011;67803;41.330;69.282;2023-12-07T03:56:34;29.00;;;12.82;;
78346;SDS011;67803;41.330;69.282;2023-12-07T03:59:05;30.63;;;13.52;;
78346;SDS011;67803;41.330;69.282;2023-12-07T04:01:36;30.13;;;12.75;;
78346;SDS011;67803;41.330;69.282;2023-12-07T04:04:07;24.23;;;11.50;;
78346;SDS011;67803;41.330;69.282;2023-12-07T04:06:38;39.67;;;14.00;;
78346;SDS011;67803;41.330;69.282;2023-12-07T04:09:09;28.02;;;12.75;;
78346;SDS011;67803;41.330;69.282;2023-12-07T04:11:40;38.55;;;12.77;;
78346;SDS011;67803;41.330;69.282;2023-12-07T04:14:11;32.03;;;13.50;;
78346;SDS011;67803;41.330;69.282;2023-12-07T04:16:42;26.50;;;12.25;;
78346;SDS011;67803;41.330;69.282;2023-12-07T04:19:13;25.48;;;12.60;;
78346;SDS011;67803;41.330;69.282;2023-12-07T04:21:44;29.90;;;14.35;;
78346;SDS011;67803;41.330;69.282;2023-12-07T04:24:16;25.50;;;12.38;;
78346;SDS011;67803;41.330;69.282;2023-12-07T04:26:48;23.95;;;11.00;;
78346;SDS011;67803;41.330;69.282;2023-12-07T04:29:19;23.73;;;12.20;;
78346;SDS011;67803;41.330;69.282;2023-12-07T04:31:50;26.92;;;12.48;;
78346;SDS011;67803;41.330;69.282;2023-12-07T04:34:21;28.55;;;13.60;;
78346;SDS011;67803;41.330;69.282;2023-12-07T04:36:52;30.35;;;12.20;;
78346;SDS011;67803;41.330;69.282;2023-12-07T04:39:23;28.75;;;12.60;;
78346;SDS011;67803;41.330;69.282;2023-12-07T04:41:54;29.30;;;13.10;;
78346;SDS011;67803;41.330;69.282;2023-12-07T04:44:25;32.70;;;12.98;;
78346;SDS011;67803;41.330;69.282;2023-12-07T04:46:56;28.73;;;13.13;;
78346;SDS011;67803;41.330;69.282;2023-12-07T04:49:28;31.65;;;13.23;;
78346;SDS011;67803;41.330;69.282;2023-12-07T04:51:59;38.65;;;13.10;;
78346;SDS011;67803;41.330;69.282;2023-12-07T04:54:30;29.10;;;12.15;;
78346;SDS011;67803;41.330;69.282;2023-12-07T04:57:01;25.38;;;12.70;;
78346;SDS011;67803;41.330;69.282;2023-12-07T04:59:32;35.67;;;14.13;;
78346;SDS011;67803;41.330;69.282;2023-12-07T05:02:03;29.25;;;12.77;;
78346;SDS011;67803;41.330;69.282;2023-12-07T05:04:34;32.65;;;15.73;;
78346;SDS011;67803;41.330;69.282;2023-12-07T05:07:05;37.15;;;15.13;;
78346;SDS011;67803;41.330;69.282;2023-12-07T05:09:37;34.33;;;16.40;;
78346;SDS011;67803;41.330;69.282;2023-12-07T05:12:08;39.97;;;20.13;;
78346;SDS011;67803;41.330;69.282;2023-12-07T05:14:40;36.03;;;16.42;;
78346;SDS011;67803;41.330;69.282;2023-12-07T05:17:11;40.17;;;19.88;;
78346;SDS011;67803;41.330;69.282;2023-12-07T05:19:43;51.75;;;20.88;;
78346;SDS011;67803;41.330;69.282;2023-12-07T05:22:14;44.08;;;20.58;;
78346;SDS011;67803;41.330;69.282;2023-12-07T05:24:46;46.50;;;20.65;;
78346;SDS011;67803;41.330;69.282;2023-12-07T05:27:17;49.72;;;23.40;;
78346;SDS011;67803;41.330;69.282;2023-12-07T05:29:48;40.35;;;21.38;;
78346;SDS011;67803;41.330;69.282;2023-12-07T05:32:19;42.83;;;20.58;;
78346;SDS011;67803;41.330;69.282;2023-12-07T05:34:50;43.45;;;19.20;;
78346;SDS011;67803;41.330;69.282;2023-12-07T05:37:21;54.03;;;19.85;;
78346;SDS011;67803;41.330;69.282;2023-12-07T05:39:52;47.13;;;19.98;;
78346;SDS011;67803;41.330;69.282;2023-12-07T05:42:23;41.38;;;17.90;;
78346;SDS011;67803;41.330;69.282;2023-12-07T05:44:54;33.80;;;16.80;;
78346;SDS011;67803;41.330;69.282;2023-12-07T05:47:26;43.67;;;19.00;;
78346;SDS011;67803;41.330;69.282;2023-12-07T05:49:57;42.65;;;18.65;;
78346;SDS011;67803;41.330;69.282;2023-12-07T05:52:30;47.15;;;17.85;;
78346;SDS011;67803;41.330;69.282;2023-12-07T05:55:01;47.08;;;18.48;;
78346;SDS011;67803;41.330;69.282;2023-12-07T05:57:32;40.65;;;16.70;;
78346;SDS011;67803;41.330;69.282;2023-12-07T06:00:04;44.35;;;18.25;;
78346;SDS011;67803;41.330;69.282;2023-12-07T06:02:38;48.28;;;18.52;;
78346;SDS011;67803;41.330;69.282;2023-12-07T06:05:09;44.45;;;17.67;;
78346;SDS011;67803;41.330;69.282;2023-12-07T06:07:40;46.38;;;20.02;;
78346;SDS011;67803;41.330;69.282;2023-12-07T06:10:11;42.03;;;17.63;;
78346;SDS011;67803;41.330;69.282;2023-12-07T06:12:42;39.53;;;17.60;;
78346;SDS011;67803;41.330;69.282;2023-12-07T06:15:14;45.63;;;19.85;;
78346;SDS011;67803;41.330;69.282;2023-12-07T06:17:46;43.03;;;19.98;;
78346;SDS011;67803;41.330;69.282;2023-12-07T06:20:17;47.35;;;19.33;;
78346;SDS011;67803;41.330;69.282;2023-12-07T06:22:49;40.78;;;17.17;;
78346;SDS011;67803;41.330;69.282;2023-12-07T06:25:20;32.42;;;14.70;;
78346;SDS011;67803;41.330;69.282;2023-12-07T06:27:51;41.97;;;18.65;;
78346;SDS011;67803;41.330;69.282;2023-12-07T06:30:23;35.92;;;16.52;;
78346;SDS011;67803;41.330;69.282;2023-12-07T06:32:55;32.42;;;16.27;;
78346;SDS011;67803;41.330;69.282;2023-12-07T06:35:26;37.00;;;15.35;;
78346;SDS011;67803;41.330;69.282;2023-12-07T06:37:57;36.20;;;16.00;;
78346;SDS011;67803;41.330;69.282;2023-12-07T06:40:28;36.38;;;17.55;;
78346;SDS011;67803;41.330;69.282;2023-12-07T06:42:59;36.95;;;16.35;;
78346;SDS011;67803;41.330;69.282;2023-12-07T06:45:31;38.00;;;16.90;;
78346;SDS011;67803;41.330;69.282;2023-12-07T06:48:02;36.60;;;16.90;;
78346;SDS011;67803;41.330;69.282;2023-12-07T06:50:33;34.00;;;15.73;;
78346;SDS011;67803;41.330;69.282;2023-12-07T06:53:04;33.78;;;14.80;;
78346;SDS011;67803;41.330;69.282;2023-12-07T06:55:36;38.22;;;16.58;;
78346;SDS011;67803;41.330;69.282;2023-12-07T06:58:07;38.30;;;15.93;;
78346;SDS011;67803;41.330;69.282;2023-12-07T07:00:38;39.30;;;18.38;;
78346;SDS011;67803;41.330;69.282;2023-12-07T07:03:09;46.13;;;17.33;;
78346;SDS011;67803;41.330;69.282;2023-12-07T07:05:40;42.13;;;17.00;;
78346;SDS011;67803;41.330;69.282;2023-12-07T07:08:12;47.13;;;17.88;;
78346;SDS011;67803;41.330;69.282;2023-12-07T07:10:43;41.83;;;18.15;;
78346;SDS011;67803;41.330;69.282;2023-12-07T07:13:15;50.55;;;21.65;;
78346;SDS011;67803;41.330;69.282;2023-12-07T07:15:47;50.20;;;19.83;;
78346;SDS011;67803;41.330;69.282;2023-12-07T07:18:21;44.72;;;19.75;;
78346;SDS011;67803;41.330;69.282;2023-12-07T07:20:55;53.42;;;19.75;;
78346;SDS011;67803;41.330;69.282;2023-12-07T07:23:26;52.28;;;19.45;;
78346;SDS011;67803;41.330;69.282;2023-12-07T07:25:57;56.70;;;20.83;;
78346;SDS011;67803;41.330;69.282;2023-12-07T07:28:28;49.75;;;21.73;;
78346;SDS011;67803;41.330;69.282;2023-12-07T07:31:00;50.80;;;19.95;;
78346;SDS011;67803;41.330;69.282;2023-12-07T07:33:31;52.65;;;21.90;;
78346;SDS011;67803;41.330;69.282;2023-12-07T07:36:02;53.58;;;21.45;;
78346;SDS011;67803;41.330;69.282;2023-12-07T07:38:34;50.72;;;22.27;;
78346;SDS011;67803;41.330;69.282;2023-12-07T07:41:05;47.72;;;21.63;;
78346;SDS011;67803;41.330;69.282;2023-12-07T07:43:36;54.45;;;21.65;;
78346;SDS011;67803;41.330;69.282;2023-12-07T07:46:07;68.32;;;25.00;;
78346;SDS011;67803;41.330;69.282;2023-12-07T07:48:39;70.28;;;28.92;;
78346;SDS011;67803;41.330;69.282;2023-12-07T07:51:10;71.25;;;27.98;;
78346;SDS011;67803;41.330;69.282;2023-12-07T07:53:41;69.28;;;28.75;;
78346;SDS011;67803;41.330;69.282;2023-12-07T07:56:12;71.00;;;29.27;;
78346;SDS011;67803;41.330;69.282;2023-12-07T07:58:43;72.35;;;31.10;;
78346;SDS011;67803;41.330;69.282;2023-12-07T08:01:14;80.93;;;32.55;;
78346;SDS011;67803;41.330;69.282;2023-12-07T08:03:46;69.22;;;26.63;;
78346;SDS011;67803;41.330;69.282;2023-12-07T08:06:17;64.97;;;26.23;;
78346;SDS011;67803;41.330;69.282;2023-12-07T08:08:50;73.88;;;29.90;;
78346;SDS011;67803;41.330;69.282;2023-12-07T08:11:22;71.60;;;29.25;;
78346;SDS011;67803;41.330;69.282;2023-12-07T08:13:53;70.85;;;30.48;;
78346;SDS011;67803;41.330;69.282;2023-12-07T08:16:24;73.90;;;30.63;;
78346;SDS011;67803;41.330;69.282;2023-12-07T08:18:55;73.20;;;29.98;;
78346;SDS011;67803;41.330;69.282;2023-12-07T08:21:26;75.05;;;31.13;;
78346;SDS011;67803;41.330;69.282;2023-12-07T08:24:00;76.63;;;31.20;;
78346;SDS011;67803;41.330;69.282;2023-12-07T08:26:31;71.78;;;28.98;;
78346;SDS011;67803;41.330;69.282;2023-12-07T08:29:02;73.50;;;29.77;;
78346;SDS011;67803;41.330;69.282;2023-12-07T08:31:33;90.05;;;35.63;;
78346;SDS011;67803;41.330;69.282;2023-12-07T08:34:04;92.18;;;34.30;;
78346;SDS011;67803;41.330;69.282;2023-12-07T08:36:35;91.50;;;35.83;;
78346;SDS011;67803;41.330;69.282;2023-12-07T08:39:06;89.47;;;35.72;;
78346;SDS011;67803;41.330;69.282;2023-12-07T08:41:40;91.05;;;34.38;;
78346;SDS011;67803;41.330;69.282;2023-12-07T08:44:11;77.32;;;30.05;;
78346;SDS011;67803;41.330;69.282;2023-12-07T08:46:42;78.20;;;31.95;;
78346;SDS011;67803;41.330;69.282;2023-12-07T08:49:15;82.38;;;33.03;;
78346;SDS011;67803;41.330;69.282;2023-12-07T08:51:46;84.50;;;32.78;;
78346;SDS011;67803;41.330;69.282;2023-12-07T08:54:17;74.55;;;30.25;;
78346;SDS011;67803;41.330;69.282;2023-12-07T08:56:48;89.05;;;35.75;;
78346;SDS011;67803;41.330;69.282;2023-12-07T08:59:19;93.32;;;38.25;;
78346;SDS011;67803;41.330;69.282;2023-12-07T09:01:51;86.22;;;37.13;;
78346;SDS011;67803;41.330;69.282;2023-12-07T09:04:22;95.75;;;39.50;;
78346;SDS011;67803;41.330;69.282;2023-12-07T09:06:53;98.55;;;38.47;;
78346;SDS011;67803;41.330;69.282;2023-12-07T09:09:24;89.45;;;40.10;;
78346;SDS011;67803;41.330;69.282;2023-12-07T09:11:56;93.65;;;37.72;;
78346;SDS011;67803;41.330;69.282;2023-12-07T09:14:27;91.70;;;38.25;;
78346;SDS011;67803;41.330;69.282;2023-12-07T09:16:58;100.85;;;42.55;;
78346;SDS011;67803;41.330;69.282;2023-12-07T09:19:29;103.47;;;43.85;;
78346;SDS011;67803;41.330;69.282;2023-12-07T09:22:00;97.50;;;40.85;;
78346;SDS011;67803;41.330;69.282;2023-12-07T09:24:32;95.70;;;41.17;;
78346;SDS011;67803;41.330;69.282;2023-12-07T09:27:03;100.63;;;40.90;;
78346;SDS011;67803;41.330;69.282;2023-12-07T09:29:35;100.90;;;40.65;;
78346;SDS011;67803;41.330;69.282;2023-12-07T09:32:07;95.88;;;42.38;;
78346;SDS011;67803;41.330;69.282;2023-12-07T09:34:39;95.72;;;40.00;;
78346;SDS011;67803;41.330;69.282;2023-12-07T09:37:10;97.45;;;38.65;;
78346;SDS011;67803;41.330;69.282;2023-12-07T09:39:41;108.90;;;43.72;;
78346;SDS011;67803;41.330;69.282;2023-12-07T09:42:13;101.15;;;42.60;;
78346;SDS011;67803;41.330;69.282;2023-12-07T09:44:44;105.97;;;44.28;;
78346;SDS011;67803;41.330;69.282;2023-12-07T09:47:15;106.78;;;43.35;;
78346;SDS011;67803;41.330;69.282;2023-12-07T09:49:46;111.90;;;48.75;;
78346;SDS011;67803;41.330;69.282;2023-12-07T09:52:17;104.60;;;43.80;;
78346;SDS011;67803;41.330;69.282;2023-12-07T09:54:50;107.63;;;47.00;;
78346;SDS011;67803;41.330;69.282;2023-12-07T09:57:21;104.78;;;44.00;;
78346;SDS011;67803;41.330;69.282;2023-12-07T09:59:52;107.88;;;45.88;;
78346;SDS011;67803;41.330;69.282;2023-12-07T10:02:23;114.80;;;47.65;;
78346;SDS011;67803;41.330;69.282;2023-12-07T10:05:08;109.88;;;45.33;;
78346;SDS011;67803;41.330;69.282;2023-12-07T10:07:41;111.38;;;45.80;;
78346;SDS011;67803;41.330;69.282;2023-12-07T10:10:12;108.95;;;46.50;;
78346;SDS011;67803;41.330;69.282;2023-12-07T10:12:44;102.25;;;43.55;;
78346;SDS011;67803;41.330;69.282;2023-12-07T10:15:17;103.85;;;43.72;;
78346;SDS011;67803;41.330;69.282;2023-12-07T10:20:27;102.65;;;44.15;;
78346;SDS011;67803;41.330;69.282;2023-12-07T10:25:37;101.15;;;41.83;;
78346;SDS011;67803;41.330;69.282;2023-12-07T10:28:09;109.07;;;42.95;;
78346;SDS011;67803;41.330;69.282;2023-12-07T10:30:42;106.18;;;43.13;;
78346;SDS011;67803;41.330;69.282;2023-12-07T10:33:14;102.75;;;43.58;;
78346;SDS011;67803;41.330;69.282;2023-12-07T10:35:46;97.05;;;40.30;;
78346;SDS011;67803;41.330;69.282;2023-12-07T10:38:18;101.60;;;40.85;;
78346;SDS011;67803;41.330;69.282;2023-12-07T10:40:50;117.47;;;43.42;;
78346;SDS011;67803;41.330;69.282;2023-12-07T10:43:31;102.68;;;43.05;;
78346;SDS011;67803;41.330;69.282;2023-12-07T10:46:07;101.32;;;41.70;;
78346;SDS011;67803;41.330;69.282;2023-12-07T10:48:39;94.45;;;39.72;;
78346;SDS011;67803;41.330;69.282;2023-12-07T10:51:12;104.07;;;43.65;;
78346;SDS011;67803;41.330;69.282;2023-12-07T10:53:45;95.63;;;40.40;;
78346;SDS011;67803;41.330;69.282;2023-12-07T10:56:17;95.47;;;39.70;;
78346;SDS011;67803;41.330;69.282;2023-12-07T10:58:49;94.45;;;42.17;;
78346;SDS011;67803;41.330;69.282;2023-12-07T11:01:21;94.15;;;39.60;;
78346;SDS011;67803;41.330;69.282;2023-12-07T11:03:53;101.07;;;42.40;;
78346;SDS011;67803;41.330;69.282;2023-12-07T11:06:24;95.00;;;40.17;;
78346;SDS011;67803;41.330;69.282;2023-12-07T11:08:59;82.97;;;37.20;;
78346;SDS011;67803;41.330;69.282;2023-12-07T11:14:06;85.30;;;37.15;;
78346;SDS011;67803;41.330;69.282;2023-12-07T11:16:40;92.35;;;37.00;;
78346;SDS011;67803;41.330;69.282;2023-12-07T11:22:06;89.80;;;37.50;;
78346;SDS011;67803;41.330;69.282;2023-12-07T11:24:38;94.30;;;39.42;;
78346;SDS011;67803;41.330;69.282;2023-12-07T11:27:09;96.97;;;41.03;;
78346;SDS011;67803;41.330;69.282;2023-12-07T11:29:40;90.80;;;40.95;;
78346;SDS011;67803;41.330;69.282;2023-12-07T11:32:11;95.35;;;42.63;;
78346;SDS011;67803;41.330;69.282;2023-12-07T11:34:43;99.90;;;42.58;;
78346;SDS011;67803;41.330;69.282;2023-12-07T11:37:15;103.28;;;42.22;;
78346;SDS011;67803;41.330;69.282;2023-12-07T11:39:48;102.82;;;43.35;;
78346;SDS011;67803;41.330;69.282;2023-12-07T11:42:21;97.50;;;40.15;;
78346;SDS011;67803;41.330;69.282;2023-12-07T11:44:52;102.78;;;42.85;;
78346;SDS011;67803;41.330;69.282;2023-12-07T11:47:23;100.07;;;42.00;;
78346;SDS011;67803;41.330;69.282;2023-12-07T11:49:54;98.60;;;39.63;;
78346;SDS011;67803;41.330;69.282;2023-12-07T11:52:25;89.55;;;38.88;;
78346;SDS011;67803;41.330;69.282;2023-12-07T11:54:56;95.32;;;39.63;;
78346;SDS011;67803;41.330;69.282;2023-12-07T11:57:29;94.03;;;41.30;;
78346;SDS011;67803;41.330;69.282;2023-12-07T12:00:00;100.35;;;41.80;;
78346;SDS011;67803;41.330;69.282;2023-12-07T12:02:31;99.90;;;41.42;;
78346;SDS011;67803;41.330;69.282;2023-12-07T12:05:06;102.78;;;42.60;;
78346;SDS011;67803;41.330;69.282;2023-12-07T12:07:39;96.85;;;42.28;;
78346;SDS011;67803;41.330;69.282;2023-12-07T12:10:10;105.97;;;42.83;;
78346;SDS011;67803;41.330;69.282;2023-12-07T12:12:42;102.63;;;41.90;;
78346;SDS011;67803;41.330;69.282;2023-12-07T12:15:13;103.18;;;40.67;;
78346;SDS011;67803;41.330;69.282;2023-12-07T12:17:45;108.28;;;43.08;;
78346;SDS011;67803;41.330;69.282;2023-12-07T12:20:17;102.93;;;41.67;;
78346;SDS011;67803;41.330;69.282;2023-12-07T12:22:47;108.53;;;44.35;;
78346;SDS011;67803;41.330;69.282;2023-12-07T12:25:29;104.93;;;40.97;;
78346;SDS011;67803;41.330;69.282;2023-12-07T12:28:04;97.53;;;42.05;;
78346;SDS011;67803;41.330;69.282;2023-12-07T12:30:37;112.78;;;44.53;;
78346;SDS011;67803;41.330;69.282;2023-12-07T12:33:12;114.32;;;45.15;;
78346;SDS011;67803;41.330;69.282;2023-12-07T12:35:44;112.40;;;45.60;;
78346;SDS011;67803;41.330;69.282;2023-12-07T13:00:35;134.75;;;56.55;;
78346;SDS011;67803;41.330;69.282;2023-12-07T13:03:08;124.25;;;50.30;;
78346;SDS011;67803;41.330;69.282;2023-12-07T13:05:40;124.03;;;46.20;;
78346;SDS011;67803;41.330;69.282;2023-12-07T13:08:11;122.72;;;49.50;;
78346;SDS011;67803;41.330;69.282;2023-12-07T13:10:42;121.07;;;46.72;;
78346;SDS011;67803;41.330;69.282;2023-12-07T13:13:14;129.98;;;48.58;;
78346;SDS011;67803;41.330;69.282;2023-12-07T13:15:47;118.72;;;48.83;;
78346;SDS011;67803;41.330;69.282;2023-12-07T13:18:19;118.78;;;46.95;;
78346;SDS011;67803;41.330;69.282;2023-12-07T13:20:50;120.47;;;48.45;;
78346;SDS011;67803;41.330;69.282;2023-12-07T13:23:22;117.07;;;46.85;;
78346;SDS011;67803;41.330;69.282;2023-12-07T13:25:54;124.68;;;48.05;;
78346;SDS011;67803;41.330;69.282;2023-12-07T13:28:25;120.53;;;48.20;;
78346;SDS011;67803;41.330;69.282;2023-12-07T13:30:56;116.35;;;46.50;;
78346;SDS011;67803;41.330;69.282;2023-12-07T13:33:27;118.25;;;43.22;;
78346;SDS011;67803;41.330;69.282;2023-12-07T13:35:58;118.22;;;48.55;;
78346;SDS011;67803;41.330;69.282;2023-12-07T13:38:31;122.68;;;47.22;;
78346;SDS011;67803;41.330;69.282;2023-12-07T13:41:04;131.32;;;49.63;;
78346;SDS011;67803;41.330;69.282;2023-12-07T13:43:35;114.63;;;47.17;;
78346;SDS011;67803;41.330;69.282;2023-12-07T13:46:06;126.28;;;50.40;;
78346;SDS011;67803;41.330;69.282;2023-12-07T13:48:40;118.85;;;47.53;;
78346;SDS011;67803;41.330;69.282;2023-12-07T13:51:13;121.68;;;48.90;;
78346;SDS011;67803;41.330;69.282;2023-12-07T13:53:47;130.48;;;49.42;;
78346;SDS011;67803;41.330;69.282;2023-12-07T13:56:19;132.52;;;50.88;;
78346;SDS011;67803;41.330;69.282;2023-12-07T13:58:51;125.20;;;47.10;;
78346;SDS011;67803;41.330;69.282;2023-12-07T14:01:22;131.70;;;47.58;;
78346;SDS011;67803;41.330;69.282;2023-12-07T14:03:53;126.97;;;47.58;;
78346;SDS011;67803;41.330;69.282;2023-12-07T14:06:26;124.53;;;49.47;;
78346;SDS011;67803;41.330;69.282;2023-12-07T14:09:01;120.95;;;48.30;;
78346;SDS011;67803;41.330;69.282;2023-12-07T14:11:33;133.10;;;49.95;;
78346;SDS011;67803;41.330;69.282;2023-12-07T14:14:04;134.40;;;50.63;;
78346;SDS011;67803;41.330;69.282;2023-12-07T14:16:36;127.07;;;50.50;;
78346;SDS011;67803;41.330;69.282;2023-12-07T14:19:07;130.30;;;50.25;;
78346;SDS011;67803;41.330;69.282;2023-12-07T14:21:38;131.32;;;51.50;;
78346;SDS011;67803;41.330;69.282;2023-12-07T14:24:12;129.75;;;48.20;;
78346;SDS011;67803;41.330;69.282;2023-12-07T14:26:43;118.90;;;48.22;;
78346;SDS011;67803;41.330;69.282;2023-12-07T14:29:14;120.47;;;47.28;;
78346;SDS011;67803;41.330;69.282;2023-12-07T14:31:48;122.25;;;47.92;;
78346;SDS011;67803;41.330;69.282;2023-12-07T14:34:21;126.22;;;49.47;;
78346;SDS011;67803;41.330;69.282;2023-12-07T14:36:56;140.40;;;48.97;;
78346;SDS011;67803;41.330;69.282;2023-12-07T14:39:30;112.22;;;46.13;;
78346;SDS011;67803;41.330;69.282;2023-12-07T14:42:01;123.55;;;47.05;;
78346;SDS011;67803;41.330;69.282;2023-12-07T14:44:35;128.38;;;47.28;;
78346;SDS011;67803;41.330;69.282;2023-12-07T14:47:06;132.95;;;47.80;;
78346;SDS011;67803;41.330;69.282;2023-12-07T14:49:39;123.22;;;47.90;;
78346;SDS011;67803;41.330;69.282;2023-12-07T14:52:11;131.15;;;49.42;;
78346;SDS011;67803;41.330;69.282;2023-12-07T14:54:42;131.15;;;48.10;;
78346;SDS011;67803;41.330;69.282;2023-12-07T14:57:13;122.55;;;48.58;;
78346;SDS011;67803;41.330;69.282;2023-12-07T14:59:44;126.70;;;49.58;;
78346;SDS011;67803;41.330;69.282;2023-12-07T15:02:17;126.40;;;49.25;;
78346;SDS011;67803;41.330;69.282;2023-12-07T15:04:52;129.68;;;49.88;;
78346;SDS011;67803;41.330;69.282;2023-12-07T15:07:24;129.48;;;47.90;;
78346;SDS011;67803;41.330;69.282;2023-12-07T15:09:55;133.60;;;48.78;;